createdAt,value
2018-09-24T00:03:02.510Z,0.73
2018-09-24T00:07:59.209Z,0.70
2018-09-24T00:12:55.919Z,0.90
2018-09-24T00:17:52.644Z,0.70
2018-09-24T00:22:49.310Z,0.63
2018-09-24T00:27:45.993Z,0.60
2018-09-24T00:32:42.708Z,0.80
2018-09-24T00:37:39.385Z,0.77
2018-09-24T00:42:36.155Z,0.97
2018-09-24T00:47:32.896Z,0.57
2018-09-24T00:52:29.608Z,0.80
2018-09-24T00:57:26.328Z,0.70
2018-09-24T01:02:23.053Z,0.97
2018-09-24T01:07:19.749Z,0.90
2018-09-24T01:12:16.540Z,0.90
2018-09-24T01:17:13.348Z,1.03
2018-09-24T01:22:10.161Z,1.20
2018-09-24T01:27:08.084Z,1.20
2018-09-24T01:32:04.906Z,0.90
2018-09-24T01:37:02.771Z,1.17
2018-09-24T01:41:59.497Z,1.20
2018-09-24T01:46:56.459Z,1.30
2018-09-24T01:51:53.167Z,1.30
2018-09-24T01:56:49.846Z,1.00
2018-09-24T02:01:47.141Z,1.20
2018-09-24T02:06:43.966Z,1.33
2018-09-24T02:11:41.077Z,1.17
2018-09-24T02:16:37.848Z,1.40
2018-09-24T02:21:34.585Z,1.40
2018-09-24T02:26:31.408Z,1.17
2018-09-24T02:31:28.187Z,1.33
2018-09-24T02:36:24.920Z,1.50
2018-09-24T02:41:21.599Z,1.80
2018-09-24T02:46:18.387Z,1.67
2018-09-24T02:51:15.186Z,1.63
2018-09-24T02:56:11.942Z,1.60
2018-09-24T03:01:08.675Z,1.53
2018-09-24T03:06:05.398Z,1.20
2018-09-24T03:11:02.948Z,1.60
2018-09-24T03:15:59.690Z,1.60
2018-09-24T03:20:56.441Z,1.50
2018-09-24T03:25:53.184Z,1.70
2018-09-24T03:30:49.900Z,1.73
2018-09-24T03:35:46.672Z,1.37
2018-09-24T03:40:43.457Z,1.90
2018-09-24T03:45:40.221Z,1.90
2018-09-24T03:50:36.931Z,1.90
2018-09-24T03:55:33.717Z,1.80
2018-09-24T04:00:30.467Z,2.00
2018-09-24T04:05:32.876Z,2.27
2018-09-24T04:10:35.331Z,2.30
2018-09-24T04:15:37.780Z,2.13
2018-09-24T04:20:40.247Z,2.57
2018-09-24T04:25:42.517Z,2.80
2018-09-24T04:30:44.985Z,2.77
2018-09-24T04:35:47.281Z,2.70
2018-09-24T04:40:49.600Z,3.13
2018-09-24T04:45:52.032Z,3.10
2018-09-24T04:50:54.564Z,3.13
2018-09-24T04:55:56.971Z,3.30
2018-09-24T05:00:59.494Z,3.03
2018-09-24T05:06:01.839Z,3.07
2018-09-24T05:11:04.242Z,3.10
2018-09-24T05:16:06.723Z,3.20
2018-09-24T05:21:09.217Z,3.67
2018-09-24T05:26:11.588Z,4.07
2018-09-24T05:31:13.977Z,3.30
2018-09-24T05:36:16.312Z,3.10
2018-09-24T05:41:18.686Z,3.50
2018-09-24T05:46:21.057Z,3.00
2018-09-24T05:51:23.764Z,3.37
2018-09-24T05:56:26.196Z,3.70
2018-09-24T06:01:28.686Z,3.87
2018-09-24T06:06:31.134Z,3.70
2018-09-24T06:11:33.463Z,3.87
2018-09-24T06:16:35.900Z,3.47
2018-09-24T06:21:38.549Z,3.90
2018-09-24T06:26:40.896Z,3.93
2018-09-24T06:31:43.265Z,3.70
2018-09-24T06:36:45.782Z,4.03
2018-09-24T06:41:48.160Z,3.30
2018-09-24T06:46:50.535Z,4.20
2018-09-24T06:51:53.402Z,3.67
2018-09-24T06:56:55.757Z,3.50
2018-09-24T07:01:58.201Z,3.70
2018-09-24T07:07:00.836Z,3.50
2018-09-24T07:12:03.326Z,3.80
2018-09-24T07:17:05.612Z,3.70
2018-09-24T07:22:08.258Z,4.17
2018-09-24T07:27:10.697Z,3.83
2018-09-24T07:32:13.191Z,3.57
2018-09-24T07:37:15.749Z,3.17
2018-09-24T07:42:18.214Z,3.77
2018-09-24T07:47:20.623Z,4.00
2018-09-24T07:52:23.246Z,3.67
2018-09-24T07:57:25.717Z,4.20
2018-09-24T08:02:28.144Z,3.43
2018-09-24T08:07:30.543Z,3.00
2018-09-24T08:12:32.962Z,3.80
2018-09-24T08:17:35.432Z,3.17
2018-09-24T08:22:37.832Z,3.10
2018-09-24T08:27:40.184Z,3.50
2018-09-24T08:32:42.686Z,3.00
2018-09-24T08:37:45.085Z,3.00
2018-09-24T08:42:47.629Z,3.40
2018-09-24T08:47:50.126Z,2.80
2018-09-24T08:52:52.557Z,2.67
2018-09-24T08:57:54.778Z,2.97
2018-09-24T09:02:57.200Z,3.03
2018-09-24T09:07:59.479Z,2.80
2018-09-24T09:13:01.854Z,2.40
2018-09-24T09:18:04.315Z,2.77
2018-09-24T09:23:06.720Z,2.70
2018-09-24T09:28:09.155Z,2.80
2018-09-24T09:33:11.687Z,2.83
2018-09-24T09:38:14.134Z,2.93
2018-09-24T09:43:16.593Z,2.70
2018-09-24T09:48:18.878Z,2.80
2018-09-24T09:53:21.133Z,2.67
2018-09-24T09:58:23.676Z,2.70
2018-09-24T10:03:26.133Z,2.60
2018-09-24T10:08:28.601Z,2.60
2018-09-24T10:13:31.023Z,2.57
2018-09-24T10:18:33.260Z,2.60
2018-09-24T10:23:35.678Z,2.50
2018-09-24T10:28:38.315Z,2.30
2018-09-24T10:33:40.854Z,2.37
2018-09-24T10:38:43.287Z,2.22
2018-09-24T10:43:45.723Z,2.12
2018-09-24T10:48:48.194Z,2.35
2018-09-24T10:53:50.691Z,2.22
2018-09-24T10:58:53.196Z,2.33
2018-09-24T11:03:55.535Z,2.53
2018-09-24T11:08:57.716Z,2.03
2018-09-24T11:14:00.218Z,2.37
2018-09-24T11:19:02.595Z,2.40
2018-09-24T11:24:04.982Z,2.80
2018-09-24T11:29:07.464Z,2.67
2018-09-24T11:34:09.906Z,2.23
2018-09-24T11:39:13.059Z,2.20
2018-09-24T11:44:15.481Z,1.73
2018-09-24T11:49:17.839Z,2.50
2018-09-24T11:54:20.345Z,2.30
2018-09-24T11:59:22.832Z,2.50
2018-09-24T12:04:25.052Z,2.10
2018-09-24T12:09:27.504Z,2.20
2018-09-24T12:14:29.895Z,2.90
2018-09-24T12:19:32.292Z,2.67
2018-09-24T12:24:34.670Z,6.40
2018-09-24T12:29:36.942Z,1.92
2018-09-24T12:34:39.372Z,2.12
2018-09-24T12:39:41.784Z,1.77
2018-09-24T12:44:44.177Z,1.70
2018-09-24T12:49:46.910Z,2.12
2018-09-24T12:54:49.364Z,1.90
2018-09-24T12:59:51.700Z,2.10
2018-09-24T13:04:53.985Z,2.00
2018-09-24T13:09:56.399Z,2.10
2018-09-24T13:14:58.696Z,2.10
2018-09-24T13:20:01.234Z,2.10
2018-09-24T13:25:03.644Z,2.20
2018-09-24T13:30:06.085Z,2.10
2018-09-24T13:35:08.429Z,2.20
2018-09-24T13:40:10.932Z,2.22
2018-09-24T13:45:13.275Z,1.87
2018-09-24T13:50:15.828Z,1.75
2018-09-24T13:55:18.303Z,2.07
2018-09-24T14:00:20.592Z,1.97
2018-09-24T14:05:23.114Z,2.27
2018-09-24T14:10:25.514Z,2.20
2018-09-24T14:15:27.863Z,1.80
2018-09-24T14:20:30.385Z,1.97
2018-09-24T14:25:32.882Z,2.23
2018-09-24T14:30:35.263Z,1.90
2018-09-24T14:35:37.694Z,2.07
2018-09-24T14:40:40.142Z,2.50
2018-09-24T14:45:42.557Z,2.30
2018-09-24T14:50:44.988Z,2.33
2018-09-24T14:55:47.347Z,2.10
2018-09-24T15:00:49.875Z,2.23
2018-09-24T15:05:52.157Z,2.23
2018-09-24T15:10:54.580Z,1.80
2018-09-24T15:15:57.038Z,2.20
2018-09-24T15:20:59.530Z,2.13
2018-09-24T15:26:01.876Z,2.13
2018-09-24T15:31:04.250Z,2.10
2018-09-24T15:36:06.539Z,2.23
2018-09-24T15:41:08.886Z,2.00
2018-09-24T15:46:11.408Z,2.00
2018-09-24T15:51:13.835Z,2.40
2018-09-24T15:56:16.565Z,2.13
2018-09-24T16:01:19.031Z,2.20
2018-09-24T16:06:21.470Z,1.87
2018-09-24T16:11:23.829Z,2.20
2018-09-24T16:16:26.236Z,2.27
2018-09-24T16:21:28.732Z,2.20
2018-09-24T16:26:31.411Z,2.70
2018-09-24T16:31:33.691Z,2.50
2018-09-24T16:36:36.128Z,2.17
2018-09-24T16:41:38.516Z,2.23
2018-09-24T16:46:40.908Z,2.37
2018-09-24T16:51:43.129Z,2.10
2018-09-24T16:56:45.584Z,2.37
2018-09-24T17:01:48.061Z,2.23
2018-09-24T17:06:50.289Z,1.90
2018-09-24T17:11:52.678Z,2.37
2018-09-24T17:16:55.140Z,2.23
2018-09-24T17:21:57.505Z,3.17
2018-09-24T17:26:59.834Z,2.40
2018-09-24T17:32:02.161Z,2.17
2018-09-24T17:37:04.386Z,2.50
2018-09-24T17:42:06.723Z,2.67
2018-09-24T17:47:09.059Z,2.60
2018-09-24T17:52:11.461Z,2.60
2018-09-24T17:57:13.841Z,2.70
2018-09-24T18:02:16.210Z,2.70
2018-09-24T18:07:18.705Z,2.53
2018-09-24T18:12:21.109Z,2.73
2018-09-24T18:17:23.583Z,2.70
2018-09-24T18:22:26.101Z,2.50
2018-09-24T18:27:28.499Z,2.77
2018-09-24T18:32:30.909Z,2.37
2018-09-24T18:37:33.512Z,3.10
2018-09-24T18:42:35.738Z,3.30
2018-09-24T18:47:38.124Z,3.50
2018-09-24T18:52:40.501Z,3.17
2018-09-24T18:57:42.969Z,3.67
2018-09-24T19:02:45.292Z,3.23
2018-09-24T19:07:47.768Z,2.97
2018-09-24T19:12:50.201Z,3.40
2018-09-24T19:17:52.880Z,3.37
2018-09-24T19:22:55.473Z,3.10
2018-09-24T19:27:57.963Z,2.87
2018-09-24T19:33:00.295Z,2.23
2018-09-24T19:38:02.600Z,2.50
2018-09-24T19:43:04.947Z,2.60
2018-09-24T19:48:07.200Z,3.07
2018-09-24T19:53:09.657Z,3.23
2018-09-24T19:58:12.105Z,2.60
2018-09-24T20:03:14.563Z,2.67
2018-09-24T20:08:16.895Z,2.80
2018-09-24T20:13:19.379Z,3.30
2018-09-24T20:18:21.702Z,3.00
2018-09-24T20:23:24.177Z,3.10
2018-09-24T20:28:26.561Z,3.27
2018-09-24T20:33:28.968Z,4.40
2018-09-24T20:38:31.432Z,4.50
2018-09-24T20:43:33.803Z,4.27
2018-09-24T20:48:36.130Z,3.73
2018-09-24T20:53:38.760Z,4.47
2018-09-24T20:58:41.132Z,4.30
2018-09-24T21:03:43.520Z,4.00
2018-09-24T21:08:45.903Z,4.63
2018-09-24T21:13:48.271Z,4.93
2018-09-24T21:18:50.694Z,4.50
2018-09-24T21:23:53.142Z,3.93
2018-09-24T21:28:55.562Z,4.10
2018-09-24T21:33:57.960Z,4.23
2018-09-24T21:39:00.891Z,4.33
2018-09-24T21:44:03.326Z,5.50
2018-09-24T21:49:05.736Z,4.80
2018-09-24T21:54:08.138Z,4.10
2018-09-24T21:59:10.607Z,4.40
2018-09-24T22:04:12.976Z,4.17
2018-09-24T22:09:15.375Z,3.80
2018-09-24T22:14:17.698Z,4.30
2018-09-24T22:19:20.152Z,3.77
2018-09-24T22:24:22.771Z,4.00
2018-09-24T22:29:25.228Z,4.70
2018-09-24T22:34:27.641Z,4.70
2018-09-24T22:39:30.049Z,4.87
2018-09-24T22:44:32.537Z,4.77
2018-09-24T22:49:34.808Z,4.60
2018-09-24T22:54:37.168Z,3.03
2018-09-24T22:59:39.614Z,2.33
2018-09-24T23:04:41.970Z,1.90
2018-09-24T23:09:44.276Z,1.77
2018-09-24T23:14:46.685Z,1.40
2018-09-24T23:19:49.138Z,1.70
2018-09-24T23:24:51.426Z,1.60
2018-09-24T23:29:53.859Z,2.20
2018-09-24T23:34:56.442Z,1.63
2018-09-24T23:39:58.927Z,1.87
2018-09-24T23:45:01.398Z,2.03
2018-09-24T23:50:03.810Z,2.30
2018-09-24T23:55:06.397Z,2.57
